Time;durP1;ratioP1;P1;durP2;ratioP2;P2;SDS_P1;SDS_P2;PMS_P1;PMS_P2;Temp;Humidity;BMP_temperature;BMP_pressure;BME280_temperature;BME280_humidity;BME280_pressure;Samples;Min_cycle;Max_cycle;Signal;HPM_P1;HPM_P2
2021/01/05 00:00:24;;;;;;;37.65;6.97;;;17.50;61.40;;;;;;5039627;28;20035;-71
2021/01/05 00:02:52;;;;;;;37.83;7.07;;;17.60;60.40;;;;;;5038423;28;20087;-70
2021/01/05 00:05:19;;;;;;;41.70;7.68;;;17.50;61.10;;;;;;5036995;28;20034;-70
2021/01/05 00:07:45;;;;;;;42.10;8.75;;;17.60;60.90;;;;;;5039225;28;20049;-71
2021/01/05 00:10:12;;;;;;;38.67;6.75;;;17.30;61.30;;;;;;5035933;28;20352;-71
2021/01/05 00:12:39;;;;;;;36.35;7.35;;;17.40;61.60;;;;;;5024029;28;20129;-71
2021/01/05 00:15:07;;;;;;;34.33;7.65;;;17.10;62.60;;;;;;5031993;28;20029;-71
2021/01/05 00:17:34;;;;;;;30.05;6.85;;;17.10;62.60;;;;;;5032374;28;20064;-71
2021/01/05 00:20:00;;;;;;;43.20;8.43;;;17.00;63.00;;;;;;5045182;28;20041;-72
2021/01/05 00:22:27;;;;;;;38.30;8.25;;;17.20;62.00;;;;;;5039767;28;20044;-71
2021/01/05 00:24:53;;;;;;;38.92;6.50;;;17.10;62.00;;;;;;5038083;28;20112;-70
2021/01/05 00:27:20;;;;;;;36.85;6.88;;;17.00;62.00;;;;;;5040763;28;20478;-70
2021/01/05 00:29:46;;;;;;;35.92;9.15;;;16.80;62.90;;;;;;5045103;28;20052;-70
2021/01/05 00:32:19;;;;;;;43.08;7.82;;;16.70;63.80;;;;;;5043641;28;20383;-71
2021/01/05 00:34:46;;;;;;;38.20;10.05;;;16.80;64.10;;;;;;5048245;28;20028;-71
2021/01/05 00:37:14;;;;;;;31.38;8.43;;;16.90;62.70;;;;;;5041357;28;20379;-70
2021/01/05 00:39:44;;;;;;;32.85;6.32;;;16.90;62.30;;;;;;5052451;28;20078;-72
2021/01/05 00:42:11;;;;;;;36.70;7.28;;;16.70;62.90;;;;;;5039984;28;20033;-71
2021/01/05 00:44:38;;;;;;;40.15;8.00;;;16.90;62.60;;;;;;5037943;28;20029;-74
2021/01/05 00:47:05;;;;;;;43.38;8.23;;;16.60;63.10;;;;;;5038720;28;20108;-74
2021/01/05 00:49:31;;;;;;;37.25;7.80;;;16.60;63.80;;;;;;5034344;28;20037;-70
2021/01/05 00:51:58;;;;;;;38.22;8.50;;;16.50;63.60;;;;;;5028741;28;20098;-71
2021/01/05 00:54:25;;;;;;;39.22;8.23;;;16.70;63.00;;;;;;5041694;28;20033;-72
2021/01/05 00:57:06;;;;;;;38.05;7.97;;;16.60;63.10;;;;;;5038366;28;20028;-72
2021/01/05 00:59:33;;;;;;;35.92;9.45;;;16.50;62.50;;;;;;5038763;28;20041;-71
2021/01/05 01:02:00;;;;;;;39.42;8.18;;;16.50;63.00;;;;;;5039963;28;20013;-71
2021/01/05 01:04:27;;;;;;;41.70;8.35;;;16.50;63.10;;;;;;5047142;28;20459;-72
2021/01/05 01:06:55;;;;;;;36.67;8.07;;;16.50;62.80;;;;;;5039696;28;20036;-72
2021/01/05 01:09:22;;;;;;;35.58;7.68;;;16.50;62.80;;;;;;5041940;28;20032;-72
2021/01/05 01:12:20;;;;;;;33.85;6.18;;;16.40;61.60;;;;;;5038760;28;20032;-72
2021/01/05 01:14:48;;;;;;;47.30;9.55;;;16.20;63.30;;;;;;5031992;28;20014;-71
2021/01/05 01:17:15;;;;;;;31.92;7.82;;;16.20;63.50;;;;;;5028642;28;20625;-71
2021/01/05 01:19:42;;;;;;;33.13;6.85;;;15.90;63.70;;;;;;5041398;28;20031;-71
2021/01/05 01:22:09;;;;;;;38.30;7.32;;;16.00;63.90;;;;;;5030555;28;20038;-72
2021/01/05 01:24:36;;;;;;;40.28;7.70;;;16.00;63.60;;;;;;5030658;28;20028;-73
2021/01/05 01:27:03;;;;;;;32.05;7.15;;;15.80;62.70;;;;;;5035074;28;20068;-71
2021/01/05 01:29:30;;;;;;;27.48;6.75;;;15.80;64.00;;;;;;5037479;28;20489;-71
2021/01/05 01:31:57;;;;;;;35.90;8.68;;;15.60;64.00;;;;;;5032104;28;20037;-70
2021/01/05 01:34:25;;;;;;;34.47;7.18;;;15.80;63.80;;;;;;5035130;28;20072;-69
2021/01/05 01:36:59;;;;;;;39.60;7.55;;;16.00;62.50;;;;;;5036442;28;20021;-72
2021/01/05 01:39:27;;;;;;;27.15;7.28;;;15.90;62.70;;;;;;5041084;28;20101;-72
2021/01/05 01:41:54;;;;;;;30.67;5.93;;;15.80;62.80;;;;;;5033833;28;20033;-69
2021/01/05 01:44:25;;;;;;;30.13;6.47;;;15.80;62.10;;;;;;5038952;28;20040;-72
2021/01/05 01:46:55;;;;;;;30.80;6.75;;;15.60;61.50;;;;;;5036873;28;20025;-72
2021/01/05 01:49:21;;;;;;;25.50;5.50;;;15.60;62.30;;;;;;5039133;28;20018;-74
2021/01/05 01:51:53;;;;;;;31.30;8.38;;;15.40;62.10;;;;;;5028184;28;20091;-72
2021/01/05 01:54:32;;;;;;;19.60;4.30;;;15.30;62.50;;;;;;5029836;28;20021;-71
2021/01/05 01:57:32;;;;;;;23.95;5.03;;;15.30;63.20;;;;;;5032973;28;20034;-72
2021/01/05 02:00:37;;;;;;;16.75;3.83;;;15.30;63.30;;;;;;5026348;28;20039;-71
2021/01/05 02:03:22;;;;;;;21.92;4.13;;;15.20;63.80;;;;;;5012332;28;20034;-72
2021/01/05 02:06:09;;;;;;;42.00;6.38;;;15.20;62.80;;;;;;5025319;28;20079;-71
2021/01/05 02:09:09;;;;;;;26.83;5.45;;;15.20;63.60;;;;;;5032533;28;20017;-71
2021/01/05 02:11:50;;;;;;;20.15;5.53;;;15.10;64.30;;;;;;5013559;28;20102;-73
2021/01/05 02:14:43;;;;;;;25.48;5.35;;;15.10;64.10;;;;;;5056662;28;20075;-74
2021/01/05 02:17:33;;;;;;;32.30;5.90;;;14.90;63.60;;;;;;5038145;28;20418;-70
2021/01/05 02:20:21;;;;;;;25.17;5.18;;;14.90;64.80;;;;;;5037627;28;20036;-73
2021/01/05 02:23:23;;;;;;;14.50;4.05;;;14.70;64.30;;;;;;5034221;28;20471;-74
2021/01/05 02:26:08;;;;;;;25.58;6.32;;;14.90;65.50;;;;;;5024649;28;20172;-74
2021/01/05 02:28:45;;;;;;;22.85;4.93;;;14.80;64.70;;;;;;5049750;28;20029;-75
2021/01/05 02:31:48;;;;;;;23.65;6.05;;;14.80;65.40;;;;;;5023234;28;20014;-74
2021/01/05 02:34:22;;;;;;;18.73;4.45;;;14.90;65.70;;;;;;5039198;28;20037;-73
2021/01/05 02:37:06;;;;;;;22.75;4.05;;;14.90;65.50;;;;;;5040597;28;20033;-74
2021/01/05 02:39:47;;;;;;;23.70;4.85;;;14.90;65.70;;;;;;5035728;28;20048;-73
2021/01/05 02:42:50;;;;;;;15.38;4.93;;;14.90;65.70;;;;;;5043310;28;20040;-74
2021/01/05 02:45:40;;;;;;;17.40;3.92;;;14.90;66.30;;;;;;5036841;28;20025;-73
2021/01/05 02:49:00;;;;;;;29.02;4.93;;;14.90;66.30;;;;;;5017111;28;20049;-74
2021/01/05 02:52:00;;;;;;;18.80;4.60;;;14.90;65.80;;;;;;5007643;28;20037;-72
2021/01/05 02:54:54;;;;;;;30.13;5.47;;;14.90;65.50;;;;;;5042310;28;20438;-73
2021/01/05 02:57:46;;;;;;;21.15;4.22;;;14.80;65.60;;;;;;5036966;28;20041;-74
2021/01/05 03:00:40;;;;;;;32.80;6.03;;;14.70;65.80;;;;;;5035945;28;20029;-74
2021/01/05 03:03:28;;;;;;;28.23;5.15;;;14.80;65.60;;;;;;5029027;28;20038;-73
2021/01/05 03:06:13;;;;;;;25.92;5.15;;;14.70;65.30;;;;;;5022588;28;20463;-73
2021/01/05 03:08:59;;;;;;;24.67;4.55;;;14.60;65.60;;;;;;5033730;28;20072;-73
2021/01/05 03:11:50;;;;;;;21.85;4.90;;;14.60;65.50;;;;;;5059748;28;20017;-73
2021/01/05 03:14:38;;;;;;;29.77;5.07;;;14.60;65.40;;;;;;5003349;28;20030;-74
2021/01/05 03:17:30;;;;;;;26.85;5.78;;;14.50;65.20;;;;;;5030849;28;20047;-73
2021/01/05 03:20:03;;;;;;;24.58;5.30;;;14.40;65.20;;;;;;5039729;28;20033;-73
2021/01/05 03:22:31;;;;;;;;;;;14.30;65.40;;;;;;5035820;28;20363;-75
2021/01/05 03:25:36;;;;;;;26.20;5.70;;;14.00;64.90;;;;;;5044623;28;20874;-73
2021/01/05 03:28:06;;;;;;;37.00;6.00;;;13.70;66.90;;;;;;5039462;28;20029;-74
2021/01/05 03:30:45;;;;;;;30.48;5.18;;;13.60;66.40;;;;;;5059558;28;20527;-73
2021/01/05 03:33:12;;;;;;;27.13;6.82;;;13.60;67.00;;;;;;5062871;28;20021;-73
2021/01/05 03:35:39;;;;;;;35.80;8.75;;;13.40;67.60;;;;;;5050846;28;20025;-73
2021/01/05 03:38:05;;;;;;;22.08;6.70;;;13.40;67.00;;;;;;5050797;28;20395;-73
2021/01/05 03:40:32;;;;;;;18.23;5.43;;;13.40;66.80;;;;;;5046001;28;20017;-72
2021/01/05 03:42:58;;;;;;;24.08;5.65;;;13.30;67.60;;;;;;5050046;28;20075;-73
2021/01/05 03:45:28;;;;;;;32.85;8.13;;;13.10;68.30;;;;;;5056377;28;20061;-72
2021/01/05 03:47:55;;;;;;;36.20;8.40;;;13.20;68.00;;;;;;5054734;28;20102;-71
2021/01/05 03:50:21;;;;;;;27.42;7.78;;;13.20;67.90;;;;;;5045897;28;20325;-72
2021/01/05 03:52:48;;;;;;;47.35;8.57;;;13.20;67.70;;;;;;5050710;28;20036;-73
2021/01/05 03:55:16;;;;;;;32.67;8.75;;;13.20;67.80;;;;;;5051355;28;20032;-73
2021/01/05 03:57:43;;;;;;;22.30;5.15;;;13.20;68.10;;;;;;5051061;28;20447;-72
2021/01/05 04:00:15;;;;;;;37.28;6.97;;;13.10;68.60;;;;;;5049570;28;20505;-73
2021/01/05 04:02:42;;;;;;;32.72;6.78;;;13.10;68.60;;;;;;5041946;28;20037;-74
2021/01/05 04:05:09;;;;;;;30.75;6.28;;;13.20;68.60;;;;;;5040967;28;20048;-72
2021/01/05 04:07:35;;;;;;;17.73;5.90;;;13.10;68.30;;;;;;5046595;28;20052;-73
2021/01/05 04:10:02;;;;;;;38.60;6.63;;;13.00;68.30;;;;;;5048726;28;20029;-73
2021/01/05 04:12:28;;;;;;;20.33;5.38;;;12.90;69.00;;;;;;5047313;28;20345;-72
2021/01/05 04:14:54;;;;;;;22.00;6.03;;;12.70;69.60;;;;;;5069469;28;20029;-72
2021/01/05 04:17:21;;;;;;;19.55;5.28;;;12.70;70.00;;;;;;5052859;28;20025;-73
2021/01/05 04:19:47;;;;;;;15.95;5.38;;;12.70;70.20;;;;;;5048654;28;20463;-72
2021/01/05 04:22:14;;;;;;;15.02;5.38;;;12.60;70.40;;;;;;5043613;28;20120;-73
2021/01/05 04:24:40;;;;;;;14.15;4.00;;;12.50;70.30;;;;;;5050421;28;20029;-73
2021/01/05 04:27:09;;;;;;;9.60;4.32;;;12.50;69.90;;;;;;5057216;28;20083;-73
2021/01/05 04:29:35;;;;;;;19.13;5.47;;;12.50;69.70;;;;;;5055558;28;20075;-73
2021/01/05 04:32:02;;;;;;;18.85;5.25;;;12.50;69.70;;;;;;5042749;28;20148;-73
2021/01/05 04:34:38;;;;;;;33.50;7.13;;;12.40;69.70;;;;;;5048276;28;20037;-73
2021/01/05 04:37:43;;;;;;;;;;;;;;;;;;;;;
2021/01/05 04:40:37;;;;;;;26.98;6.35;;;12.50;68.90;;;;;;5031037;28;20621;-74
2021/01/05 04:47:36;;;;;;;;;;;;;;;;;;;;;
2021/01/05 04:57:24;;;;;;;29.65;7.55;;;12.70;69.90;;;;;;4917318;29;20128;-73
2021/01/05 05:00:16;;;;;;;22.60;5.07;;;12.70;70.10;;;;;;4924899;29;20470;-74
2021/01/05 05:10:09;;;;;;;28.05;5.18;;;12.60;69.80;;;;;;4921599;29;20682;-73
2021/01/05 05:20:23;;;;;;;18.42;5.07;;;12.80;69.60;;;;;;4852321;29;20434;-73
2021/01/05 05:23:02;;;;;;;38.17;6.45;;;12.70;70.30;;;;;;4865172;29;20033;-72
2021/01/05 05:26:03;;;;;;;89.97;31.67;;;12.60;70.10;;;;;;4948524;28;20461;-73
2021/01/05 05:28:37;;;;;;;28.98;9.23;;;12.60;70.80;;;;;;5030001;28;20407;-73
2021/01/05 05:31:04;;;;;;;27.83;5.57;;;12.50;69.80;;;;;;5031372;28;20029;-73
2021/01/05 05:40:58;;;;;;;61.35;24.67;;;12.30;70.60;;;;;;5030501;28;20037;-74
2021/01/05 06:32:19;;;;;;;24.35;5.93;;;11.90;71.90;;;;;;4789014;29;20047;-74
2021/01/05 06:34:48;;;;;;;21.13;4.57;;;11.80;72.10;;;;;;4831982;29;20351;-74
2021/01/05 06:38:27;;;;;;;;;;;;;;;;;;;;;
2021/01/05 07:26:39;;;;;;;;;;;;;;;;;;;;;
2021/01/05 07:40:44;;;;;;;32.80;6.82;;;10.90;74.30;;;;;;4780564;29;20131;-73
2021/01/05 07:47:50;;;;;;;;;;;;;;;;;;;;;
2021/01/05 07:50:26;;;;;;;32.75;9.32;;;10.90;74.30;;;;;;4814391;29;20053;-73
2021/01/05 07:53:17;;;;;;;22.85;4.80;;;10.80;74.20;;;;;;4866416;29;20033;-75
2021/01/05 07:56:19;;;;;;;28.98;5.95;;;10.70;74.90;;;;;;4988775;28;20046;-73
2021/01/05 07:58:45;;;;;;;19.35;5.03;;;10.40;77.20;;;;;;5045104;28;20040;-75
2021/01/05 08:01:12;;;;;;;22.83;6.78;;;10.40;76.70;;;;;;5030146;28;20028;-73
2021/01/05 08:03:38;;;;;;;26.27;6.30;;;10.40;76.50;;;;;;5030975;28;20482;-72
2021/01/05 08:06:06;;;;;;;31.30;7.75;;;10.40;75.80;;;;;;5040419;28;20022;-73
2021/01/05 08:08:33;;;;;;;22.10;5.60;;;10.50;75.10;;;;;;5030641;28;20026;-72
2021/01/05 08:10:59;;;;;;;15.25;4.78;;;10.50;74.80;;;;;;5032679;28;20034;-72
2021/01/05 08:13:25;;;;;;;14.38;5.35;;;10.40;75.20;;;;;;5038138;28;20440;-73
2021/01/05 08:15:52;;;;;;;21.27;6.78;;;10.40;75.20;;;;;;5033431;28;20021;-73
2021/01/05 08:18:18;;;;;;;20.38;5.93;;;10.30;75.00;;;;;;5021339;28;20030;-73
2021/01/05 08:20:45;;;;;;;16.70;4.38;;;10.30;74.80;;;;;;5029356;28;20040;-73
2021/01/05 08:23:11;;;;;;;37.63;7.07;;;10.20;74.70;;;;;;5034777;28;20148;-73
2021/01/05 08:25:38;;;;;;;20.30;6.30;;;10.30;73.90;;;;;;5031263;28;20092;-73
2021/01/05 08:28:04;;;;;;;41.58;7.93;;;10.30;73.70;;;;;;5030272;28;20025;-73
2021/01/05 08:30:33;;;;;;;31.70;6.38;;;10.30;73.80;;;;;;5037118;28;20171;-73
2021/01/05 08:33:02;;;;;;;29.17;6.07;;;10.40;74.10;;;;;;5037724;28;20029;-73
2021/01/05 08:35:29;;;;;;;29.67;5.80;;;10.50;73.70;;;;;;5037693;28;20036;-74
2021/01/05 08:37:57;;;;;;;23.52;5.68;;;10.50;74.30;;;;;;5041790;28;20024;-73
2021/01/05 08:40:27;;;;;;;24.63;4.78;;;10.40;73.90;;;;;;5042583;28;20075;-74
2021/01/05 08:42:55;;;;;;;32.75;5.75;;;10.60;73.40;;;;;;5047162;28;20064;-73
2021/01/05 08:45:22;;;;;;;21.08;4.70;;;10.70;73.50;;;;;;5033533;28;20083;-72
2021/01/05 08:47:49;;;;;;;25.20;4.70;;;10.70;73.90;;;;;;5034989;28;20021;-73
2021/01/05 08:50:28;;;;;;;17.90;4.15;;;10.60;75.40;;;;;;5034860;28;20024;-73
2021/01/05 08:52:58;;;;;;;18.30;5.20;;;10.60;75.00;;;;;;5035254;28;20112;-73
2021/01/05 08:55:25;;;;;;;13.30;3.80;;;10.60;75.20;;;;;;5034981;28;20035;-73
2021/01/05 08:57:51;;;;;;;20.13;3.95;;;10.50;74.80;;;;;;5038759;28;20017;-74
2021/01/05 09:00:18;;;;;;;14.50;4.20;;;10.80;74.10;;;;;;5037466;28;20056;-73
2021/01/05 09:02:45;;;;;;;12.20;5.32;;;10.90;73.60;;;;;;5036661;28;20056;-73
2021/01/05 09:05:12;;;;;;;9.23;3.63;;;11.00;73.30;;;;;;5035256;28;22059;-73
2021/01/05 09:07:39;;;;;;;16.25;4.47;;;10.80;73.90;;;;;;5039008;28;20022;-73
2021/01/05 09:10:08;;;;;;;15.45;5.70;;;10.70;74.20;;;;;;5038668;28;20021;-73
2021/01/05 09:12:35;;;;;;;9.23;3.85;;;10.60;74.50;;;;;;5047282;28;20029;-73
2021/01/05 09:15:06;;;;;;;13.35;4.57;;;10.60;74.20;;;;;;5046866;28;20029;-73
2021/01/05 09:17:33;;;;;;;9.90;3.97;;;10.40;74.80;;;;;;5038837;28;20022;-73
2021/01/05 09:19:59;;;;;;;13.60;5.82;;;10.40;74.10;;;;;;5039950;28;20420;-73
2021/01/05 09:22:26;;;;;;;18.70;4.50;;;10.40;73.80;;;;;;5036917;28;20029;-73
2021/01/05 09:24:52;;;;;;;16.88;6.05;;;10.30;73.60;;;;;;5033960;28;20124;-74
2021/01/05 09:27:19;;;;;;;13.23;4.07;;;10.40;73.40;;;;;;5035261;28;20032;-74
2021/01/05 09:29:45;;;;;;;11.13;4.10;;;10.30;73.50;;;;;;5037851;28;20474;-74
2021/01/05 09:32:12;;;;;;;10.68;3.90;;;10.20;73.80;;;;;;5033773;28;20025;-74
2021/01/05 09:34:38;;;;;;;13.52;3.53;;;10.10;73.80;;;;;;5026836;28;20045;-73
2021/01/05 09:37:06;;;;;;;7.20;3.67;;;10.00;73.80;;;;;;5036126;28;20033;-73
2021/01/05 09:39:32;;;;;;;18.08;4.18;;;10.00;73.70;;;;;;5034944;28;20112;-73
2021/01/05 09:42:05;;;;;;;18.27;4.88;;;10.00;73.30;;;;;;5034387;28;20356;-73
2021/01/05 09:44:32;;;;;;;14.98;4.68;;;10.10;72.70;;;;;;5035634;28;20029;-73
2021/01/05 09:47:02;;;;;;;12.88;3.63;;;10.00;73.20;;;;;;5035942;28;20014;-73
2021/01/05 09:49:30;;;;;;;11.02;4.65;;;9.80;74.40;;;;;;5040088;28;20026;-73
2021/01/05 09:52:02;;;;;;;13.23;4.15;;;9.90;73.80;;;;;;5039673;28;20033;-73
2021/01/05 09:54:30;;;;;;;20.07;5.07;;;9.80;74.40;;;;;;5036999;28;20100;-73
2021/01/05 09:56:57;;;;;;;11.00;4.32;;;9.80;73.90;;;;;;5034201;28;20302;-73
2021/01/05 09:59:28;;;;;;;22.08;5.22;;;9.80;73.30;;;;;;5035576;28;20394;-73
2021/01/05 10:01:55;;;;;;;21.73;4.97;;;9.80;73.30;;;;;;5036063;28;20029;-74
2021/01/05 10:04:22;;;;;;;25.15;5.70;;;10.00;73.20;;;;;;5042394;28;20067;-73
2021/01/05 10:06:49;;;;;;;15.02;4.22;;;9.90;72.30;;;;;;5033741;28;20018;-73
2021/01/05 10:09:15;;;;;;;17.63;5.82;;;9.90;72.90;;;;;;5032460;28;20033;-74
2021/01/05 10:11:45;;;;;;;21.95;4.20;;;9.90;73.00;;;;;;5034141;28;20571;-73
2021/01/05 10:14:13;;;;;;;31.42;4.97;;;9.80;73.50;;;;;;5032946;28;20471;-73
2021/01/05 10:16:40;;;;;;;18.17;4.47;;;9.60;73.60;;;;;;5035165;28;20033;-72
2021/01/05 10:19:07;;;;;;;25.92;4.50;;;9.60;74.30;;;;;;5010734;28;20341;-73
2021/01/05 10:21:37;;;;;;;30.58;7.95;;;9.50;74.10;;;;;;5012987;28;20290;-72
2021/01/05 10:24:05;;;;;;;21.48;5.22;;;9.60;73.90;;;;;;5018489;28;20044;-72
2021/01/05 10:26:33;;;;;;;24.40;4.47;;;9.70;73.50;;;;;;5014104;28;20433;-73
2021/01/05 10:29:00;;;;;;;30.15;5.68;;;9.80;73.40;;;;;;5014144;28;20101;-72
2021/01/05 10:31:26;;;;;;;22.13;5.28;;;9.90;73.90;;;;;;5014917;28;20026;-73
2021/01/05 10:33:53;;;;;;;17.95;5.22;;;9.90;73.10;;;;;;5013091;28;20034;-73
2021/01/05 10:36:21;;;;;;;23.67;4.75;;;9.60;73.40;;;;;;5024547;28;20046;-73
2021/01/05 10:38:50;;;;;;;18.80;4.07;;;9.60;73.40;;;;;;5014020;28;20125;-72
2021/01/05 10:41:17;;;;;;;28.90;4.80;;;9.60;74.00;;;;;;5006601;28;20038;-73
2021/01/05 10:43:45;;;;;;;29.15;5.53;;;9.70;73.90;;;;;;5020299;28;20029;-74
2021/01/05 10:46:17;;;;;;;25.35;4.80;;;9.70;73.60;;;;;;5014865;28;20025;-72
2021/01/05 10:48:45;;;;;;;40.50;5.73;;;9.60;73.80;;;;;;5019235;28;20451;-73
2021/01/05 10:51:11;;;;;;;21.17;4.78;;;9.60;74.40;;;;;;5007854;28;20464;-73
2021/01/05 10:53:37;;;;;;;24.98;7.15;;;9.70;74.80;;;;;;5014048;28;20065;-72
2021/01/05 10:56:04;;;;;;;19.35;4.82;;;9.90;74.30;;;;;;5013128;28;20030;-73
2021/01/05 10:58:30;;;;;;;24.08;5.40;;;10.00;73.50;;;;;;5012431;28;20046;-73
2021/01/05 11:00:57;;;;;;;28.08;5.97;;;9.80;73.30;;;;;;5012049;28;20053;-73
2021/01/05 11:03:23;;;;;;;11.60;4.15;;;9.60;73.90;;;;;;5008452;28;20026;-73
2021/01/05 11:05:49;;;;;;;28.25;5.43;;;9.40;74.70;;;;;;5028138;28;20452;-74
2021/01/05 11:08:16;;;;;;;23.60;5.50;;;9.30;75.40;;;;;;5026391;28;20337;-74
2021/01/05 11:10:42;;;;;;;22.67;5.10;;;9.40;75.20;;;;;;5015186;28;20052;-72
2021/01/05 11:13:09;;;;;;;22.25;5.18;;;9.50;75.50;;;;;;5018887;28;20076;-73
2021/01/05 11:15:36;;;;;;;26.92;8.35;;;9.70;74.10;;;;;;5014088;28;20479;-73
2021/01/05 11:18:02;;;;;;;33.80;6.47;;;9.70;73.80;;;;;;5013260;28;20037;-73
2021/01/05 11:20:28;;;;;;;25.73;5.40;;;9.60;74.00;;;;;;5015989;28;20075;-74
2021/01/05 11:22:55;;;;;;;31.33;6.05;;;9.50;74.40;;;;;;5018671;28;20029;-73
2021/01/05 11:25:21;;;;;;;30.17;6.32;;;9.40;74.30;;;;;;5013572;28;20030;-74
2021/01/05 11:27:49;;;;;;;37.03;8.07;;;9.40;74.80;;;;;;5011419;28;20029;-73
2021/01/05 11:30:23;;;;;;;21.70;5.20;;;9.40;74.50;;;;;;5034662;28;20497;-72
2021/01/05 11:32:50;;;;;;;37.38;5.63;;;9.50;74.70;;;;;;5020252;28;20022;-73
2021/01/05 11:35:17;;;;;;;26.20;5.85;;;9.40;74.30;;;;;;5013184;28;20384;-73
2021/01/05 11:37:44;;;;;;;25.60;5.00;;;9.30;74.90;;;;;;5014082;28;20053;-72
2021/01/05 11:40:11;;;;;;;30.90;5.68;;;9.20;75.40;;;;;;5024648;28;20040;-73
2021/01/05 11:42:38;;;;;;;25.77;5.10;;;9.40;75.20;;;;;;5019517;28;20022;-73
2021/01/05 11:45:10;;;;;;;25.27;6.35;;;9.30;74.90;;;;;;5013863;28;20030;-73
2021/01/05 11:47:36;;;;;;;26.77;5.30;;;9.30;75.00;;;;;;5015741;28;20109;-73
2021/01/05 11:50:05;;;;;;;19.90;4.82;;;9.20;75.50;;;;;;5018134;28;20158;-73
2021/01/05 11:52:34;;;;;;;25.90;5.90;;;9.20;75.80;;;;;;5019878;28;20460;-73
2021/01/05 11:55:01;;;;;;;26.23;5.65;;;9.20;76.00;;;;;;5021483;28;20055;-73
2021/01/05 11:57:27;;;;;;;37.15;6.07;;;9.20;76.30;;;;;;5015550;28;20026;-74
2021/01/05 11:59:53;;;;;;;36.50;7.70;;;9.40;76.50;;;;;;5017016;28;20022;-72
2021/01/05 12:02:20;;;;;;;34.72;5.53;;;9.50;76.20;;;;;;5017176;28;20464;-73
2021/01/05 12:04:46;;;;;;;28.23;7.22;;;9.60;76.00;;;;;;5018041;28;20173;-73
2021/01/05 12:07:13;;;;;;;27.23;4.97;;;9.70;75.40;;;;;;5017600;28;20064;-73
2021/01/05 12:09:39;;;;;;;20.67;4.47;;;9.50;76.30;;;;;;5018145;28;20048;-74
2021/01/05 12:12:09;;;;;;;21.85;5.63;;;9.40;76.70;;;;;;5019164;28;20018;-73
2021/01/05 12:14:36;;;;;;;28.75;5.50;;;9.30;77.60;;;;;;5015609;28;20030;-73
2021/01/05 12:17:04;;;;;;;30.52;6.03;;;9.40;76.90;;;;;;5027790;28;20025;-73
2021/01/05 12:19:33;;;;;;;25.13;5.65;;;9.50;76.80;;;;;;5029337;28;20030;-73
2021/01/05 12:22:03;;;;;;;24.05;4.53;;;9.50;76.80;;;;;;5018034;28;20036;-73
2021/01/05 12:24:31;;;;;;;17.98;4.22;;;9.50;77.00;;;;;;5034142;28;20033;-74
2021/01/05 12:27:00;;;;;;;22.85;5.47;;;9.50;77.20;;;;;;5025383;28;20026;-73
2021/01/05 12:29:30;;;;;;;32.10;5.85;;;9.60;77.00;;;;;;5015747;28;20033;-73
2021/01/05 12:32:01;;;;;;;20.95;5.30;;;9.70;76.70;;;;;;5014492;28;20057;-72
2021/01/05 12:34:30;;;;;;;27.25;6.22;;;9.60;76.60;;;;;;5016842;28;20034;-73
2021/01/05 12:37:01;;;;;;;23.27;5.97;;;9.70;76.40;;;;;;5027027;28;20049;-73
2021/01/05 12:39:31;;;;;;;21.95;5.50;;;9.70;76.50;;;;;;5014906;28;20455;-72
2021/01/05 12:41:59;;;;;;;23.80;5.20;;;9.70;76.50;;;;;;5018567;28;20517;-73
2021/01/05 12:44:28;;;;;;;28.92;6.60;;;9.70;76.60;;;;;;5015998;28;20405;-73
2021/01/05 12:46:56;;;;;;;38.00;6.35;;;9.80;76.50;;;;;;5030912;28;20017;-72
2021/01/05 12:49:23;;;;;;;28.92;5.32;;;9.80;76.50;;;;;;5015104;28;20685;-73
2021/01/05 12:51:50;;;;;;;18.17;4.78;;;9.90;76.60;;;;;;5016234;28;20562;-72
2021/01/05 12:54:25;;;;;;;31.40;5.50;;;9.90;76.80;;;;;;5015934;28;20030;-73
2021/01/05 12:56:55;;;;;;;27.17;6.22;;;10.00;76.70;;;;;;5024016;28;20045;-73
2021/01/05 12:59:22;;;;;;;29.52;6.90;;;10.00;76.40;;;;;;5020220;28;20026;-73
2021/01/05 13:02:00;;;;;;;34.50;5.18;;;10.10;76.50;;;;;;5015816;28;20164;-73
2021/01/05 13:04:26;;;;;;;24.20;5.32;;;10.10;76.30;;;;;;5024138;28;20068;-73
2021/01/05 13:06:54;;;;;;;31.10;5.32;;;10.10;76.50;;;;;;5016047;28;20033;-73
2021/01/05 13:09:21;;;;;;;22.15;5.43;;;10.10;76.80;;;;;;5015971;28;20067;-73
2021/01/05 13:11:48;;;;;;;30.92;5.20;;;10.00;76.80;;;;;;5017647;28;20025;-73
2021/01/05 13:14:17;;;;;;;27.92;6.68;;;10.00;76.50;;;;;;5020566;28;20022;-74
2021/01/05 13:16:44;;;;;;;21.52;5.35;;;10.00;76.50;;;;;;5018785;28;20478;-72
2021/01/05 13:19:13;;;;;;;31.50;5.28;;;10.10;76.40;;;;;;5014138;28;20057;-73
2021/01/05 13:21:42;;;;;;;30.05;8.18;;;10.10;76.10;;;;;;5016956;28;20034;-73
2021/01/05 13:24:13;;;;;;;15.60;4.18;;;10.00;76.60;;;;;;5031095;28;20037;-73
2021/01/05 13:26:40;;;;;;;21.83;4.85;;;10.00;76.80;;;;;;5015425;28;20464;-74
2021/01/05 13:29:07;;;;;;;43.55;8.02;;;10.00;76.70;;;;;;5016977;28;20025;-77
2021/01/05 13:31:42;;;;;;;24.13;5.00;;;10.20;76.70;;;;;;5017096;28;20337;-73
2021/01/05 13:34:12;;;;;;;21.30;4.70;;;10.10;76.80;;;;;;5020401;28;20053;-73
2021/01/05 13:36:40;;;;;;;21.20;4.63;;;10.10;77.10;;;;;;5015927;28;20033;-73
2021/01/05 13:39:06;;;;;;;34.17;5.85;;;10.20;77.60;;;;;;5025176;28;20087;-73
2021/01/05 13:41:34;;;;;;;30.38;6.43;;;10.20;77.10;;;;;;4997409;28;20038;-72
2021/01/05 13:44:03;;;;;;;36.50;6.18;;;10.30;76.60;;;;;;5013231;28;20026;-73
2021/01/05 13:46:33;;;;;;;28.48;7.15;;;10.30;76.60;;;;;;5013870;28;20101;-73
2021/01/05 13:49:00;;;;;;;20.80;5.25;;;10.30;76.50;;;;;;5027064;28;20491;-73
2021/01/05 13:51:40;;;;;;;23.40;6.47;;;10.30;76.90;;;;;;5013048;28;20030;-73
2021/01/05 13:54:07;;;;;;;33.00;6.82;;;10.30;77.00;;;;;;5009740;28;20022;-73
2021/01/05 13:56:33;;;;;;;30.98;7.88;;;10.30;76.50;;;;;;5017039;28;20025;-73
2021/01/05 13:59:00;;;;;;;30.13;6.07;;;10.40;76.90;;;;;;5015252;28;20371;-73
2021/01/05 14:01:27;;;;;;;25.90;5.80;;;10.40;76.80;;;;;;5013546;28;20030;-73
2021/01/05 14:03:55;;;;;;;29.02;6.32;;;10.40;76.70;;;;;;5014818;28;20025;-73
2021/01/05 14:06:30;;;;;;;24.05;6.50;;;10.40;77.50;;;;;;5014306;28;20021;-73
2021/01/05 14:09:00;;;;;;;24.90;5.97;;;10.40;76.30;;;;;;5012980;28;20030;-73
2021/01/05 14:11:28;;;;;;;34.67;5.85;;;10.50;76.10;;;;;;5014712;28;20026;-72
2021/01/05 14:13:55;;;;;;;36.88;6.47;;;10.40;76.10;;;;;;5013870;28;20034;-72
2021/01/05 14:16:24;;;;;;;42.15;7.68;;;10.50;76.20;;;;;;5014504;28;20435;-73
2021/01/05 14:18:52;;;;;;;29.85;6.95;;;10.60;75.90;;;;;;5013937;28;20037;-75
2021/01/05 14:21:31;;;;;;;25.27;6.40;;;10.40;76.30;;;;;;5027265;28;20516;-75
2021/01/05 14:24:00;;;;;;;26.30;6.63;;;10.30;76.60;;;;;;5013926;28;20117;-72
2021/01/05 14:26:28;;;;;;;25.20;6.72;;;10.20;76.60;;;;;;5014797;28;20075;-73
2021/01/05 14:28:55;;;;;;;29.83;6.32;;;10.20;76.80;;;;;;5019502;28;20021;-73
2021/01/05 14:31:24;;;;;;;30.20;7.45;;;10.20;75.60;;;;;;5028339;28;20173;-73
2021/01/05 14:33:52;;;;;;;36.28;6.25;;;10.30;75.70;;;;;;5014111;28;20033;-73
2021/01/05 14:36:21;;;;;;;43.10;6.63;;;10.20;75.60;;;;;;5012556;28;20022;-73
2021/01/05 14:38:48;;;;;;;36.13;8.55;;;10.10;75.60;;;;;;5016311;28;20471;-74
2021/01/05 14:41:15;;;;;;;41.50;8.68;;;10.20;75.80;;;;;;5016115;28;20148;-73
2021/01/05 14:43:42;;;;;;;39.20;6.78;;;10.20;75.90;;;;;;5014535;28;20038;-73
2021/01/05 14:46:09;;;;;;;40.72;7.40;;;10.00;76.30;;;;;;5013488;28;20013;-73
2021/01/05 14:48:35;;;;;;;39.58;7.10;;;9.90;76.40;;;;;;5012259;28;20030;-73
2021/01/05 14:51:02;;;;;;;41.20;8.00;;;10.00;76.40;;;;;;5013046;28;20356;-73
2021/01/05 14:53:30;;;;;;;34.22;7.57;;;10.00;75.60;;;;;;5010542;28;20383;-73
2021/01/05 14:55:56;;;;;;;32.80;6.72;;;10.00;76.10;;;;;;5002891;28;20088;-73
2021/01/05 14:58:22;;;;;;;32.35;6.53;;;9.80;76.50;;;;;;5011603;28;20026;-73
2021/01/05 15:00:49;;;;;;;31.00;6.10;;;9.80;76.90;;;;;;5002131;28;20116;-73
2021/01/05 15:03:15;;;;;;;26.73;6.05;;;9.80;76.90;;;;;;5013162;28;20030;-73
2021/01/05 15:05:41;;;;;;;18.08;5.82;;;9.70;76.80;;;;;;5013855;28;20026;-73
2021/01/05 15:08:08;;;;;;;21.70;5.57;;;9.70;76.90;;;;;;5013084;28;20031;-72
2021/01/05 15:10:36;;;;;;;31.95;7.50;;;9.60;76.90;;;;;;5009885;28;20032;-73
2021/01/05 15:13:02;;;;;;;47.25;7.40;;;9.60;76.80;;;;;;5011982;28;20409;-74
2021/01/05 15:15:28;;;;;;;35.60;8.80;;;9.70;76.40;;;;;;5027559;28;20104;-73
2021/01/05 15:17:56;;;;;;;41.42;7.55;;;9.70;76.00;;;;;;5017136;28;20471;-73
2021/01/05 15:20:22;;;;;;;31.45;7.05;;;9.80;75.90;;;;;;5014876;28;20053;-73
2021/01/05 15:22:49;;;;;;;47.58;10.13;;;9.70;76.00;;;;;;5014588;28;20399;-73
2021/01/05 15:25:16;;;;;;;37.40;7.47;;;9.70;76.50;;;;;;5015755;28;20109;-75
2021/01/05 15:27:42;;;;;;;27.60;7.13;;;9.60;76.90;;;;;;5012361;28;20060;-73
2021/01/05 15:30:09;;;;;;;36.35;10.02;;;9.60;77.00;;;;;;5012028;28;20022;-73